Terminal Aerodrome Forecast
Issued by NWS Sioux Falls, SD

Home | Current Version | Previous Version | Text Only | Print | Product List | Glossary On
Versions: 1 2 3 4 5 6 7 8 9 10 11 12 13 14 15 16 17 18 19
000
FTUS43 KFSD 231700
TAFHON
TAF
KHON 231731Z 2318/2418 14008KT P6SM SKC
     FM240500 14010KT P6SM BKN120
      TEMPO 2407/2410 P6SM TSRA BKN060CB
     FM241300 15012G18KT P6SM BKN120
     FM241600 15016G24KT P6SM SCT060 BKN250=

USA.gov is the U.S. government's official web portal to all federal, state and local government web resources and services.